Yorkville, Illinois
Current Conditions -  °F | °C
As of 8:52 PM on Monday 26 Jan 2015 (Local Time) from KARR Reporting Station
Haze Haze  
Wind Chill: -6°   Ceiling: 400
Heat Index: -3°   Visibility: 2.5mi
Dew Point: -4°   Wind: 6mph
Humidity: 89%   Direction: 150°SSE
Pressure: 29.89"   Gusts: NA
Location:  41.64°N, 88.45°W
Report Text: KARR 270252Z 15005KT 2 1/2SM BR OVC004 M03/M04 A2989 RMK AO2 SLP133 I1001 I3004 T10281044 53001
Loading
Personal Weather Stations






























Interactive Weather Map New forecast layout! Learn more

10-Day Weather Forecast

Advertisements
Track Severe Weather on mobile